createdAt,value
2023-10-13T00:01:56.996Z,101276.34
2023-10-13T00:04:23.942Z,101272.59
2023-10-13T00:06:50.520Z,101272.59
2023-10-13T00:09:17.000Z,101274.63
2023-10-13T00:11:47.349Z,101273.78
2023-10-13T00:14:17.445Z,101274.63
2023-10-13T00:17:01.915Z,101272.09
2023-10-13T00:19:29.360Z,101262.03
2023-10-13T00:21:57.617Z,101256.56
2023-10-13T00:24:30.706Z,101259.28
2023-10-13T00:26:58.718Z,101255.53
2023-10-13T00:29:31.817Z,101252.59
2023-10-13T00:31:58.882Z,101244.38
2023-10-13T00:34:33.823Z,101247.81
2023-10-13T00:37:18.669Z,101238.09
2023-10-13T00:39:48.087Z,101240.16
2023-10-13T00:42:21.503Z,101234.50
2023-10-13T00:44:51.077Z,101236.19
2023-10-13T00:47:43.965Z,101231.59
2023-10-13T00:50:15.938Z,101239.81
2023-10-13T00:52:47.996Z,101240.44
2023-10-13T00:55:15.012Z,101229.53
2023-10-13T00:57:42.404Z,101223.41
2023-10-13T01:00:25.572Z,101218.97
2023-10-13T01:03:09.637Z,101218.78
2023-10-13T01:05:38.488Z,101221.31
2023-10-13T01:08:05.008Z,101218.38
2023-10-13T01:10:33.935Z,101219.22
2023-10-13T01:13:03.484Z,101213.97
2023-10-13T01:15:34.826Z,101215.50
2023-10-13T01:18:15.174Z,101202.00
2023-10-13T01:20:46.732Z,101214.81
2023-10-13T01:23:20.133Z,101209.34
2023-10-13T01:25:47.302Z,101212.75
2023-10-13T01:28:19.925Z,101211.72
2023-10-13T01:30:51.684Z,101203.72
2023-10-13T01:33:24.516Z,101208.50
2023-10-13T01:35:51.925Z,101206.44
2023-10-13T01:38:18.642Z,101202.00
2023-10-13T01:40:45.320Z,101196.53
2023-10-13T01:43:16.204Z,101194.66
2023-10-13T01:45:51.197Z,101200.78
2023-10-13T01:48:19.508Z,101198.25
2023-10-13T01:50:55.742Z,101186.44
2023-10-13T01:53:23.548Z,101201.81
2023-10-13T01:55:51.563Z,101207.28
2023-10-13T01:58:19.755Z,101199.25
2023-10-13T02:00:48.933Z,101203.72
2023-10-13T02:03:17.081Z,101200.09
2023-10-13T02:05:49.775Z,101202.84
2023-10-13T02:08:24.100Z,101212.56
2023-10-13T02:10:53.319Z,101200.97
2023-10-13T02:13:21.824Z,101210.88
2023-10-13T02:15:49.451Z,101200.59
2023-10-13T02:18:22.152Z,101198.53
2023-10-13T02:20:55.337Z,101193.06
2023-10-13T02:23:22.544Z,101185.72
2023-10-13T02:25:49.062Z,101181.94
2023-10-13T02:28:15.789Z,101189.09
2023-10-13T02:30:46.472Z,101184.66
2023-10-13T02:33:13.419Z,101189.28
2023-10-13T02:35:43.764Z,101190.50
2023-10-13T02:38:13.554Z,101185.03
2023-10-13T02:40:40.170Z,101182.31
2023-10-13T02:43:06.637Z,101180.44
2023-10-13T02:45:34.014Z,101171.38
2023-10-13T02:48:14.888Z,101178.72
2023-10-13T02:50:45.401Z,101166.94
2023-10-13T02:53:14.851Z,101167.16
2023-10-13T02:55:54.130Z,101172.63
2023-10-13T02:58:22.059Z,101170.25
2023-10-13T03:00:48.911Z,101162.91
2023-10-13T03:03:20.065Z,101155.94
2023-10-13T03:05:46.849Z,101150.66
2023-10-13T03:08:18.935Z,101142.28
2023-10-13T03:10:49.778Z,101131.38
2023-10-13T03:13:16.333Z,101121.28
2023-10-13T03:15:42.878Z,101119.19
2023-10-13T03:18:16.639Z,101102.63
2023-10-13T03:20:44.952Z,101122.38
2023-10-13T03:23:11.412Z,101116.94
2023-10-13T03:25:44.119Z,101107.03
2023-10-13T03:28:15.342Z,101107.88
2023-10-13T03:30:45.096Z,101101.59
2023-10-13T03:33:13.360Z,101099.69
2023-10-13T03:35:43.488Z,101094.03
2023-10-13T03:38:20.529Z,101093.00
2023-10-13T03:40:50.781Z,101095.75
2023-10-13T03:43:23.289Z,101088.56
2023-10-13T03:45:53.418Z,101083.94
2023-10-13T03:48:26.591Z,101089.41
2023-10-13T03:51:16.878Z,101086.88
2023-10-13T03:53:56.009Z,101080.78
2023-10-13T03:56:33.010Z,101080.78
2023-10-13T03:59:07.674Z,101077.00
2023-10-13T04:01:52.697Z,101076.78
2023-10-13T04:04:40.247Z,101070.28
2023-10-13T04:07:06.676Z,101063.97
2023-10-13T04:09:33.161Z,101065.84
2023-10-13T04:12:03.631Z,101065.84
2023-10-13T04:14:48.856Z,101063.78
2023-10-13T04:17:15.845Z,101056.63
2023-10-13T04:20:04.240Z,101062.28
2023-10-13T04:22:50.640Z,101048.81
2023-10-13T04:25:37.177Z,101042.53
2023-10-13T04:28:13.643Z,101041.66
2023-10-13T04:30:58.742Z,101035.81
2023-10-13T04:33:35.520Z,101036.19
2023-10-13T04:36:15.308Z,101032.59
2023-10-13T04:39:01.079Z,101029.50
2023-10-13T04:41:46.083Z,101022.97
2023-10-13T04:44:25.443Z,101019.41
2023-10-13T04:46:52.142Z,101011.41
2023-10-13T04:49:35.365Z,101005.97
2023-10-13T04:52:12.422Z,101005.97
2023-10-13T04:54:46.556Z,101011.88
2023-10-13T04:57:32.144Z,101007.25
2023-10-13T05:00:04.903Z,101004.53
2023-10-13T05:02:37.894Z,101011.69
2023-10-13T05:05:07.646Z,101008.94
2023-10-13T05:07:52.871Z,101006.69
2023-10-13T05:10:49.005Z,101001.41
2023-10-13T05:13:34.155Z,101003.94
2023-10-13T05:16:19.602Z,101000.53
2023-10-13T05:19:04.870Z,100995.94
2023-10-13T05:21:49.747Z,100991.31
2023-10-13T05:24:34.656Z,100989.63
2023-10-13T05:27:19.597Z,100989.63
2023-10-13T05:30:05.864Z,100993.22
2023-10-13T05:32:51.091Z,100990.50
2023-10-13T05:35:36.259Z,100981.25
2023-10-13T05:38:21.158Z,100979.56
2023-10-13T05:41:26.487Z,100980.41
2023-10-13T05:44:11.774Z,100986.50
2023-10-13T05:46:38.708Z,100994.06
2023-10-13T05:49:17.698Z,100998.28
2023-10-13T05:51:48.900Z,100991.97
2023-10-13T05:54:15.720Z,100988.84
2023-10-13T05:57:07.544Z,100979.59
2023-10-13T05:59:53.234Z,100990.53
2023-10-13T06:02:39.975Z,100979.81
2023-10-13T06:05:32.028Z,100986.13
2023-10-13T06:08:17.606Z,100976.03
2023-10-13T06:11:03.010Z,100977.72
2023-10-13T06:13:48.327Z,100974.97
2023-10-13T06:16:34.526Z,100975.81
2023-10-13T06:19:19.707Z,100982.34
2023-10-13T06:22:05.525Z,100967.84
2023-10-13T06:24:50.481Z,100973.09
2023-10-13T06:27:35.811Z,100959.63
2023-10-13T06:30:02.867Z,100950.59
2023-10-13T06:32:29.676Z,100945.75
2023-10-13T06:35:06.105Z,100951.06
2023-10-13T06:37:34.189Z,100950.84
2023-10-13T06:40:07.621Z,100948.09
2023-10-13T06:42:41.124Z,100952.34
2023-10-13T06:45:09.618Z,100952.13
2023-10-13T06:47:43.821Z,100952.13
2023-10-13T06:50:26.045Z,100957.59
2023-10-13T06:52:56.519Z,100951.13
2023-10-13T06:55:29.591Z,100937.47
2023-10-13T06:58:01.120Z,100945.00
2023-10-13T07:00:31.291Z,100936.59
2023-10-13T07:03:08.277Z,100934.91
2023-10-13T07:05:36.084Z,100934.06
2023-10-13T07:08:05.745Z,100934.22
2023-10-13T07:10:40.595Z,100929.44
2023-10-13T07:13:09.347Z,100925.84
2023-10-13T07:15:41.068Z,100921.63
2023-10-13T07:18:07.514Z,100922.47
2023-10-13T07:20:35.610Z,100922.06
2023-10-13T07:23:05.152Z,100919.16
2023-10-13T07:25:34.219Z,100922.78
2023-10-13T07:28:09.853Z,100911.41
2023-10-13T07:30:54.897Z,100911.41
2023-10-13T07:33:21.585Z,100909.34
2023-10-13T07:35:53.032Z,100905.56
2023-10-13T07:38:22.563Z,100898.22
2023-10-13T07:40:54.835Z,100900.75
2023-10-13T07:43:22.911Z,100906.84
2023-10-13T07:45:53.442Z,100905.63
2023-10-13T07:48:21.489Z,100901.19
2023-10-13T07:50:50.025Z,100907.53
2023-10-13T07:53:25.737Z,100897.44
2023-10-13T07:55:57.374Z,100901.84
2023-10-13T07:58:27.458Z,100887.34
2023-10-13T08:00:59.630Z,100893.44
2023-10-13T08:03:52.463Z,100894.28
2023-10-13T08:06:21.440Z,100887.78
2023-10-13T08:08:51.598Z,100885.06
2023-10-13T08:11:21.189Z,100888.63
2023-10-13T08:14:02.486Z,100881.91
2023-10-13T08:16:51.708Z,100888.19
2023-10-13T08:19:19.281Z,100881.50
2023-10-13T08:22:21.690Z,100876.88
2023-10-13T08:24:52.328Z,100872.25
2023-10-13T08:27:34.538Z,100873.97
2023-10-13T08:30:03.832Z,100866.78
2023-10-13T08:32:30.634Z,100862.16
2023-10-13T08:35:10.277Z,100868.50
2023-10-13T08:37:56.901Z,100856.91
2023-10-13T08:40:42.640Z,100858.56
2023-10-13T08:43:12.780Z,100862.38
2023-10-13T08:45:45.528Z,100856.91
2023-10-13T08:48:19.753Z,100858.56
2023-10-13T08:50:53.217Z,100851.44
2023-10-13T08:53:45.574Z,100850.59
2023-10-13T08:56:15.680Z,100839.88
2023-10-13T08:58:55.252Z,100837.13
2023-10-13T09:01:44.741Z,100839.66
2023-10-13T09:04:30.946Z,100831.66
2023-10-13T09:07:07.206Z,100832.06
2023-10-13T09:09:52.307Z,100817.53
2023-10-13T09:12:35.058Z,100812.09
2023-10-13T09:15:25.025Z,100815.88
2023-10-13T09:17:51.813Z,100815.88
2023-10-13T09:20:44.126Z,100812.72
2023-10-13T09:23:13.366Z,100813.97
2023-10-13T09:25:55.090Z,100798.41
2023-10-13T09:28:26.619Z,100800.31
2023-10-13T09:30:54.122Z,100795.69
2023-10-13T09:33:34.380Z,100788.94
2023-10-13T09:36:01.378Z,100797.97
2023-10-13T09:38:32.398Z,100799.03
2023-10-13T09:40:59.365Z,100796.97
2023-10-13T09:43:27.858Z,100793.16
2023-10-13T09:46:08.888Z,100774.88
2023-10-13T09:48:37.516Z,100771.31
2023-10-13T09:51:08.024Z,100770.47
2023-10-13T09:53:35.231Z,100763.31
2023-10-13T09:56:20.477Z,100758.03
2023-10-13T09:58:56.194Z,100747.09
2023-10-13T10:01:35.107Z,100740.78
2023-10-13T10:04:17.068Z,100732.81
2023-10-13T10:07:00.652Z,100729.00
2023-10-13T10:09:36.010Z,100735.31
2023-10-13T10:12:11.054Z,100729.84
2023-10-13T10:14:38.387Z,100715.13
2023-10-13T10:17:11.151Z,100714.94
2023-10-13T10:19:47.483Z,100714.94
2023-10-13T10:22:21.845Z,100714.94
2023-10-13T10:24:58.159Z,100712.41
2023-10-13T10:27:31.755Z,100702.50
2023-10-13T10:29:58.886Z,100701.91
2023-10-13T10:32:34.742Z,100693.47
2023-10-13T10:35:08.820Z,100698.94
2023-10-13T10:37:35.758Z,100697.06
2023-10-13T10:40:06.932Z,100688.84
2023-10-13T10:42:33.704Z,100688.00
2023-10-13T10:45:06.497Z,100680.88
2023-10-13T10:47:34.086Z,100678.31
2023-10-13T10:50:08.033Z,100692.19
2023-10-13T10:52:38.450Z,100681.25
2023-10-13T10:55:08.766Z,100682.94
2023-10-13T10:57:38.486Z,100681.03
2023-10-13T11:00:16.059Z,100702.06
2023-10-13T11:02:42.491Z,100682.09
2023-10-13T11:05:11.767Z,100674.13
2023-10-13T11:07:38.300Z,100664.25
2023-10-13T11:10:14.651Z,100652.88
2023-10-13T11:12:44.539Z,100650.97
2023-10-13T11:15:23.699Z,100632.47
2023-10-13T11:17:55.751Z,100642.38
2023-10-13T11:20:44.946Z,100636.03
2023-10-13T11:23:12.733Z,100642.38
2023-10-13T11:25:39.675Z,100635.19
2023-10-13T11:28:18.838Z,100630.78
2023-10-13T11:30:51.367Z,100629.94
2023-10-13T11:33:29.617Z,100625.31
2023-10-13T11:35:57.160Z,100608.09
2023-10-13T11:38:27.910Z,100609.97
2023-10-13T11:41:08.782Z,100608.69
2023-10-13T11:43:53.659Z,100600.72
2023-10-13T11:46:37.064Z,100597.97
2023-10-13T11:49:18.228Z,100592.31
2023-10-13T11:51:47.736Z,100581.38
2023-10-13T11:54:21.150Z,100572.78
2023-10-13T11:56:48.042Z,100574.44
2023-10-13T11:59:18.971Z,100563.28
2023-10-13T12:02:05.004Z,100555.94
2023-10-13T12:04:50.232Z,100573.16
2023-10-13T12:07:46.292Z,100571.09
2023-10-13T12:10:34.568Z,100568.56
2023-10-13T12:13:06.779Z,100560.78
2023-10-13T12:15:49.990Z,100561.63
2023-10-13T12:18:17.022Z,100557.84
2023-10-13T12:20:46.807Z,100555.31
2023-10-13T12:23:18.255Z,100535.56
2023-10-13T12:26:00.744Z,100541.25
2023-10-13T12:28:32.325Z,100531.34
2023-10-13T12:31:05.352Z,100534.50
2023-10-13T12:33:44.964Z,100539.78
2023-10-13T12:36:16.444Z,100527.97
2023-10-13T12:38:49.455Z,100518.94
2023-10-13T12:41:36.262Z,100510.53
2023-10-13T12:44:22.929Z,100516.00
2023-10-13T12:47:08.524Z,100510.31
2023-10-13T12:49:44.719Z,100508.44
2023-10-13T12:52:20.128Z,100499.19
2023-10-13T12:55:07.222Z,100497.28
2023-10-13T12:57:34.655Z,100494.56
2023-10-13T13:00:02.087Z,100488.88
2023-10-13T13:02:28.888Z,100475.84
2023-10-13T13:05:02.792Z,100478.34
2023-10-13T13:07:30.683Z,100477.28
2023-10-13T13:09:59.828Z,100472.28
2023-10-13T13:12:26.332Z,100471.00
2023-10-13T13:14:56.129Z,100456.25
2023-10-13T13:17:22.989Z,100450.81
2023-10-13T13:19:49.819Z,100447.22
2023-10-13T13:22:17.265Z,100434.22
2023-10-13T13:24:44.691Z,100432.31
2023-10-13T13:27:14.827Z,100438.63
2023-10-13T13:29:44.696Z,100432.91
2023-10-13T13:32:25.333Z,100426.84
2023-10-13T13:35:08.889Z,100423.69
2023-10-13T13:37:35.989Z,100428.31
2023-10-13T13:40:17.428Z,100404.56
2023-10-13T13:42:44.505Z,100411.06
2023-10-13T13:45:22.542Z,100398.25
2023-10-13T13:47:55.127Z,100391.50
2023-10-13T13:50:25.924Z,100391.50
2023-10-13T13:52:53.839Z,100387.72
2023-10-13T13:55:21.053Z,100388.56
2023-10-13T13:57:47.958Z,100389.41
2023-10-13T14:00:18.327Z,100387.50
2023-10-13T14:02:49.091Z,100387.50
2023-10-13T14:05:19.111Z,100381.81
2023-10-13T14:07:51.674Z,100387.09
2023-10-13T14:10:32.513Z,100378.03
2023-10-13T14:13:07.406Z,100375.28
2023-10-13T14:15:45.191Z,100367.97
2023-10-13T14:18:20.621Z,100366.25
2023-10-13T14:20:47.100Z,100362.69
2023-10-13T14:23:13.524Z,100367.09
2023-10-13T14:25:40.471Z,100361.44
2023-10-13T14:28:07.649Z,100354.28
2023-10-13T14:30:34.423Z,100342.28
2023-10-13T14:33:00.850Z,100345.22
2023-10-13T14:35:27.364Z,100336.19
2023-10-13T14:37:54.189Z,100327.78
2023-10-13T14:40:22.828Z,100323.34
2023-10-13T14:42:49.724Z,100330.53
2023-10-13T14:45:19.043Z,100318.75
2023-10-13T14:47:45.586Z,100312.41
2023-10-13T14:50:20.806Z,100319.59
2023-10-13T14:52:50.423Z,100306.09
2023-10-13T14:55:19.951Z,100316.00
2023-10-13T14:57:51.609Z,100309.69
2023-10-13T15:00:26.234Z,100299.59
2023-10-13T15:02:54.347Z,100305.06
2023-10-13T15:05:21.092Z,100305.06
2023-10-13T15:07:47.702Z,100303.19
2023-10-13T15:10:17.786Z,100303.19
2023-10-13T15:12:47.782Z,100311.38
2023-10-13T15:15:17.383Z,100305.91
2023-10-13T15:17:44.416Z,100303.19
2023-10-13T15:20:16.852Z,100301.47
2023-10-13T15:22:44.381Z,100290.53
2023-10-13T15:25:21.886Z,100300.44
2023-10-13T15:27:56.584Z,100289.50
2023-10-13T15:30:31.989Z,100287.81
2023-10-13T15:32:58.631Z,100286.97
2023-10-13T15:35:29.526Z,100286.13
2023-10-13T15:37:56.714Z,100283.41
2023-10-13T15:40:25.033Z,100277.94
2023-10-13T15:42:51.500Z,100279.00
2023-10-13T15:45:18.041Z,100268.06
2023-10-13T15:48:16.901Z,100252.72
2023-10-13T15:50:42.905Z,100240.72
2023-10-13T15:53:13.819Z,100246.41
2023-10-13T15:55:40.622Z,100251.88
2023-10-13T15:58:10.208Z,100246.41
2023-10-13T16:00:37.279Z,100243.88
2023-10-13T16:03:11.433Z,100229.38
2023-10-13T16:05:39.268Z,100237.56
2023-10-13T16:08:07.936Z,100234.84
2023-10-13T16:10:34.698Z,100231.03
2023-10-13T16:13:01.201Z,100225.56
2023-10-13T16:15:27.786Z,100232.94
2023-10-13T16:17:54.903Z,100220.56
2023-10-13T16:20:22.108Z,100217.59
2023-10-13T16:22:49.092Z,100207.50
2023-10-13T16:25:19.680Z,100204.16
2023-10-13T16:27:47.509Z,100206.91
2023-10-13T16:30:17.151Z,100202.25
2023-10-13T16:32:46.904Z,100204.16
2023-10-13T16:35:17.519Z,100203.28
2023-10-13T16:37:48.137Z,100207.72
2023-10-13T16:40:19.364Z,100209.81
2023-10-13T16:42:46.646Z,100193.41
2023-10-13T16:45:15.865Z,100200.56
2023-10-13T16:47:43.834Z,100203.28
2023-10-13T16:50:10.981Z,100197.81
2023-10-13T16:52:37.654Z,100193.41
2023-10-13T16:55:05.907Z,100199.72
2023-10-13T16:57:32.390Z,100201.63
2023-10-13T16:59:58.866Z,100194.47
2023-10-13T17:02:25.379Z,100207.31
2023-10-13T17:04:51.906Z,100216.59
2023-10-13T17:07:19.912Z,100205.00
2023-10-13T17:09:46.611Z,100193.00
2023-10-13T17:12:13.206Z,100194.31
2023-10-13T17:14:41.557Z,100193.84
2023-10-13T17:17:09.484Z,100200.19
2023-10-13T17:19:35.993Z,100195.75
2023-10-13T17:22:05.038Z,100197.66
2023-10-13T17:24:34.470Z,100197.66
2023-10-13T17:27:02.473Z,100187.53
2023-10-13T17:29:29.931Z,100182.06
2023-10-13T17:31:56.515Z,100192.19
2023-10-13T17:34:23.298Z,100190.72
2023-10-13T17:36:50.136Z,100187.38
2023-10-13T17:39:19.035Z,100191.56
2023-10-13T17:41:49.494Z,100191.56
2023-10-13T17:44:15.926Z,100191.78
2023-10-13T17:46:42.942Z,100192.63
2023-10-13T17:49:09.442Z,100192.63
2023-10-13T17:51:36.138Z,100190.72
2023-10-13T17:54:02.565Z,100192.63
2023-10-13T17:56:28.992Z,100191.78
2023-10-13T17:58:55.658Z,100207.13
2023-10-13T18:01:22.716Z,100197.22
2023-10-13T18:03:53.089Z,100185.47
2023-10-13T18:06:21.352Z,100188.44
2023-10-13T18:08:50.419Z,100190.31
2023-10-13T18:11:17.100Z,100190.09
2023-10-13T18:13:44.366Z,100184.84
2023-10-13T18:16:17.518Z,100185.69
2023-10-13T18:18:44.810Z,100181.91
2023-10-13T18:21:13.190Z,100183.78
2023-10-13T18:23:44.541Z,100176.66
2023-10-13T18:26:16.590Z,100182.13
2023-10-13T18:28:43.656Z,100176.66
2023-10-13T18:31:13.222Z,100168.47
2023-10-13T18:33:40.740Z,100165.91
2023-10-13T18:36:14.498Z,100164.88
2023-10-13T18:38:41.026Z,100165.72
2023-10-13T18:41:08.752Z,100153.31
2023-10-13T18:43:39.252Z,100155.00
2023-10-13T18:46:12.836Z,100159.44
2023-10-13T18:48:39.489Z,100160.47
2023-10-13T18:51:07.442Z,100162.16
2023-10-13T18:53:35.327Z,100164.06
2023-10-13T18:56:05.471Z,100169.53
2023-10-13T18:58:34.415Z,100160.47
2023-10-13T19:01:09.121Z,100153.97
2023-10-13T19:03:35.637Z,100139.22
2023-10-13T19:06:02.032Z,100146.59
2023-10-13T19:08:30.361Z,100142.19
2023-10-13T19:10:56.803Z,100143.88
2023-10-13T19:13:23.229Z,100143.22
2023-10-13T19:15:49.739Z,100145.13
2023-10-13T19:18:16.348Z,100149.31
2023-10-13T19:20:42.867Z,100143.03
2023-10-13T19:23:10.290Z,100149.75
2023-10-13T19:25:37.137Z,100142.63
2023-10-13T19:28:03.743Z,100147.84
2023-10-13T19:30:32.674Z,100135.03
2023-10-13T19:35:25.978Z,100133.75
2023-10-13T19:37:52.399Z,100131.88
2023-10-13T19:40:18.850Z,100135.66
2023-10-13T19:42:45.358Z,100133.75
2023-10-13T19:45:14.411Z,100126.63
2023-10-13T19:47:42.014Z,100109.16
2023-10-13T19:50:14.194Z,100129.13
2023-10-13T19:52:43.416Z,100120.94
2023-10-13T19:55:17.561Z,100126.63
2023-10-13T19:57:45.277Z,100110.22
2023-10-13T20:00:20.856Z,100126.41
2023-10-13T20:02:50.320Z,100124.72
2023-10-13T20:05:18.932Z,100117.38
2023-10-13T20:07:45.357Z,100113.56
2023-10-13T20:10:12.083Z,100098.22
2023-10-13T20:12:41.987Z,100113.56
2023-10-13T20:15:08.717Z,100105.38
2023-10-13T20:17:36.166Z,100097.59
2023-10-13T20:20:04.676Z,100101.19
2023-10-13T20:22:31.386Z,100102.88
2023-10-13T20:24:58.131Z,100104.75
2023-10-13T20:27:24.699Z,100102.88
2023-10-13T20:29:52.281Z,100104.75
2023-10-13T20:32:18.735Z,100101.19
2023-10-13T20:34:45.108Z,100108.34
2023-10-13T20:37:14.242Z,100100.13
2023-10-13T20:39:42.122Z,100095.50
2023-10-13T20:42:10.200Z,100100.13
2023-10-13T20:44:41.326Z,100090.88
2023-10-13T20:47:08.149Z,100088.13
2023-10-13T20:49:34.849Z,100085.41
2023-10-13T20:52:05.622Z,100075.31
2023-10-13T20:54:35.542Z,100079.09
2023-10-13T20:57:02.115Z,100071.97
2023-10-13T20:59:28.654Z,100066.50
2023-10-13T21:01:56.548Z,100071.13
2023-10-13T21:04:24.832Z,100057.47
2023-10-13T21:06:51.650Z,100064.59
2023-10-13T21:09:21.675Z,100059.34
2023-10-13T21:11:51.275Z,100059.34
2023-10-13T21:14:17.817Z,100052.19
2023-10-13T21:16:44.363Z,100057.66
2023-10-13T21:19:11.053Z,100054.94
2023-10-13T21:21:38.919Z,100040.44
2023-10-13T21:24:11.026Z,100051.38
2023-10-13T21:26:37.884Z,100043.41
2023-10-13T21:29:09.027Z,100043.41
2023-10-13T21:31:38.669Z,100039.84
2023-10-13T21:34:08.594Z,100034.56
2023-10-13T21:36:38.549Z,100032.06
2023-10-13T21:39:05.558Z,100023.88
2023-10-13T21:41:37.970Z,100025.97
2023-10-13T21:44:04.594Z,100027.66
2023-10-13T21:46:31.201Z,100035.63
2023-10-13T21:49:05.787Z,100024.47
2023-10-13T21:51:33.377Z,100020.31
2023-10-13T21:54:00.246Z,100025.53
2023-10-13T21:56:26.755Z,100015.66
2023-10-13T21:58:53.178Z,100012.94
2023-10-13T22:01:22.585Z,100009.38
2023-10-13T22:03:49.697Z,100011.28
2023-10-13T22:06:16.760Z,100006.63
2023-10-13T22:08:43.310Z,99996.53
2023-10-13T22:11:09.964Z,99994.63
2023-10-13T22:13:42.057Z,99992.75
2023-10-13T22:16:12.403Z,99985.81
2023-10-13T22:18:39.088Z,99987.72
2023-10-13T22:21:05.612Z,99990.25
2023-10-13T22:23:32.018Z,99979.31
2023-10-13T22:25:58.452Z,99967.31
2023-10-13T22:28:25.152Z,99959.13
2023-10-13T22:30:51.893Z,99952.81
2023-10-13T22:33:18.421Z,99947.34
2023-10-13T22:35:44.875Z,99939.16
2023-10-13T22:38:12.589Z,99934.53
2023-10-13T22:40:42.004Z,99928.22
2023-10-13T22:43:08.553Z,99925.25
2023-10-13T22:45:35.081Z,99925.88
2023-10-13T22:48:01.611Z,99912.44
2023-10-13T22:50:27.996Z,99906.97
2023-10-13T22:52:59.578Z,99910.31
2023-10-13T22:55:26.504Z,99905.69
2023-10-13T22:57:57.596Z,99895.00
2023-10-13T23:00:47.640Z,99901.50
2023-10-13T23:03:18.653Z,99910.53
2023-10-13T23:06:04.664Z,99906.75
2023-10-13T23:08:41.821Z,99917.69
2023-10-13T23:11:15.853Z,99912.22
2023-10-13T23:13:44.007Z,99924.00
2023-10-13T23:16:13.989Z,99920.44
2023-10-13T23:18:41.461Z,99917.47
2023-10-13T23:21:08.000Z,99926.50
2023-10-13T23:23:34.475Z,99920.81
2023-10-13T23:26:04.381Z,99905.03
2023-10-13T23:28:37.057Z,99933.19
2023-10-13T23:31:03.882Z,99945.78
2023-10-13T23:33:30.450Z,99943.28
2023-10-13T23:35:56.926Z,99927.72
2023-10-13T23:38:26.237Z,99918.69
2023-10-13T23:40:53.615Z,99906.91
2023-10-13T23:43:22.823Z,99898.97
2023-10-13T23:46:06.200Z,99894.53
2023-10-13T23:48:35.608Z,99869.34
2023-10-13T23:51:02.392Z,99867.66
2023-10-13T23:53:32.353Z,99867.19
2023-10-13T23:56:13.495Z,99863.44
2023-10-13T23:58:42.241Z,99847.22
